sensor_id;sensor_type;location;lat;lon;timestamp;temperature;humidity
22968;DHT22;11650;48.106;-1.696;2024-02-21T00:00:38;9.80;99.90
22968;DHT22;11650;48.106;-1.696;2024-02-21T00:03:04;9.90;99.90
22968;DHT22;11650;48.106;-1.696;2024-02-21T00:05:30;9.90;99.90
22968;DHT22;11650;48.106;-1.696;2024-02-21T00:07:58;9.90;99.90
22968;DHT22;11650;48.106;-1.696;2024-02-21T00:10:24;9.90;99.90
22968;DHT22;11650;48.106;-1.696;2024-02-21T00:12:50;9.90;99.90
22968;DHT22;11650;48.106;-1.696;2024-02-21T00:15:15;9.90;99.90
22968;DHT22;11650;48.106;-1.696;2024-02-21T00:17:43;9.90;99.90
22968;DHT22;11650;48.106;-1.696;2024-02-21T00:20:09;9.90;99.90
22968;DHT22;11650;48.106;-1.696;2024-02-21T00:22:35;9.90;99.90
22968;DHT22;11650;48.106;-1.696;2024-02-21T00:25:01;9.90;99.90
22968;DHT22;11650;48.106;-1.696;2024-02-21T00:27:27;9.90;99.90
22968;DHT22;11650;48.106;-1.696;2024-02-21T00:29:53;9.90;99.90
22968;DHT22;11650;48.106;-1.696;2024-02-21T00:32:19;9.90;99.90
22968;DHT22;11650;48.106;-1.696;2024-02-21T00:34:44;9.90;99.90
22968;DHT22;11650;48.106;-1.696;2024-02-21T00:37:10;9.90;99.90
22968;DHT22;11650;48.106;-1.696;2024-02-21T00:39:35;9.90;99.90
22968;DHT22;11650;48.106;-1.696;2024-02-21T00:42:02;9.90;99.90
22968;DHT22;11650;48.106;-1.696;2024-02-21T00:44:28;9.90;99.90
22968;DHT22;11650;48.106;-1.696;2024-02-21T00:46:53;9.90;99.90
22968;DHT22;11650;48.106;-1.696;2024-02-21T00:49:19;9.90;99.90
22968;DHT22;11650;48.106;-1.696;2024-02-21T00:51:45;9.90;99.90
22968;DHT22;11650;48.106;-1.696;2024-02-21T00:54:10;9.90;99.90
22968;DHT22;11650;48.106;-1.696;2024-02-21T00:56:36;9.90;99.90
22968;DHT22;11650;48.106;-1.696;2024-02-21T00:59:02;9.90;99.90
22968;DHT22;11650;48.106;-1.696;2024-02-21T01:01:27;9.90;99.90
22968;DHT22;11650;48.106;-1.696;2024-02-21T01:03:53;9.90;99.90
22968;DHT22;11650;48.106;-1.696;2024-02-21T01:06:22;9.90;99.90
22968;DHT22;11650;48.106;-1.696;2024-02-21T01:08:47;9.90;99.90
22968;DHT22;11650;48.106;-1.696;2024-02-21T01:11:14;9.90;99.90
22968;DHT22;11650;48.106;-1.696;2024-02-21T01:13:40;9.90;99.90
22968;DHT22;11650;48.106;-1.696;2024-02-21T01:16:06;9.90;99.90
22968;DHT22;11650;48.106;-1.696;2024-02-21T01:18:41;9.90;99.90
22968;DHT22;11650;48.106;-1.696;2024-02-21T01:21:08;9.90;99.90
22968;DHT22;11650;48.106;-1.696;2024-02-21T01:23:34;9.90;99.90
22968;DHT22;11650;48.106;-1.696;2024-02-21T01:26:00;9.90;99.90
22968;DHT22;11650;48.106;-1.696;2024-02-21T01:28:26;9.90;99.90
22968;DHT22;11650;48.106;-1.696;2024-02-21T01:30:51;9.90;99.90
22968;DHT22;11650;48.106;-1.696;2024-02-21T01:33:17;9.90;99.90
22968;DHT22;11650;48.106;-1.696;2024-02-21T01:35:43;9.90;99.90
22968;DHT22;11650;48.106;-1.696;2024-02-21T01:38:08;9.90;99.90
22968;DHT22;11650;48.106;-1.696;2024-02-21T01:40:34;9.80;99.90
22968;DHT22;11650;48.106;-1.696;2024-02-21T01:42:59;9.90;99.90
22968;DHT22;11650;48.106;-1.696;2024-02-21T01:45:25;9.90;99.90
22968;DHT22;11650;48.106;-1.696;2024-02-21T01:47:51;9.90;99.90
22968;DHT22;11650;48.106;-1.696;2024-02-21T01:50:17;9.90;99.90
22968;DHT22;11650;48.106;-1.696;2024-02-21T01:52:45;9.90;99.90
22968;DHT22;11650;48.106;-1.696;2024-02-21T01:55:13;9.90;99.90
22968;DHT22;11650;48.106;-1.696;2024-02-21T01:57:40;9.90;99.90
22968;DHT22;11650;48.106;-1.696;2024-02-21T02:00:07;9.90;99.90
22968;DHT22;11650;48.106;-1.696;2024-02-21T02:02:33;9.90;99.90
22968;DHT22;11650;48.106;-1.696;2024-02-21T02:04:59;9.90;99.90
22968;DHT22;11650;48.106;-1.696;2024-02-21T02:07:26;9.90;99.90
22968;DHT22;11650;48.106;-1.696;2024-02-21T02:09:51;9.90;99.90
22968;DHT22;11650;48.106;-1.696;2024-02-21T02:12:17;9.90;99.90
22968;DHT22;11650;48.106;-1.696;2024-02-21T02:14:42;9.90;99.90
22968;DHT22;11650;48.106;-1.696;2024-02-21T02:17:08;9.90;99.90
22968;DHT22;11650;48.106;-1.696;2024-02-21T02:19:35;9.90;99.90
22968;DHT22;11650;48.106;-1.696;2024-02-21T02:22:09;9.90;99.90
22968;DHT22;11650;48.106;-1.696;2024-02-21T02:24:36;9.90;99.90
22968;DHT22;11650;48.106;-1.696;2024-02-21T02:27:01;9.90;99.90
22968;DHT22;11650;48.106;-1.696;2024-02-21T02:29:27;9.90;99.90
22968;DHT22;11650;48.106;-1.696;2024-02-21T02:31:52;9.90;99.90
22968;DHT22;11650;48.106;-1.696;2024-02-21T02:34:18;9.80;99.90
22968;DHT22;11650;48.106;-1.696;2024-02-21T02:36:44;9.80;99.90
22968;DHT22;11650;48.106;-1.696;2024-02-21T02:39:09;9.80;99.90
22968;DHT22;11650;48.106;-1.696;2024-02-21T02:41:36;9.80;99.90
22968;DHT22;11650;48.106;-1.696;2024-02-21T02:44:01;9.80;99.90
22968;DHT22;11650;48.106;-1.696;2024-02-21T02:46:27;9.80;99.90
22968;DHT22;11650;48.106;-1.696;2024-02-21T02:48:52;9.70;99.90
22968;DHT22;11650;48.106;-1.696;2024-02-21T02:51:18;9.70;99.90
22968;DHT22;11650;48.106;-1.696;2024-02-21T02:53:44;9.70;99.90
22968;DHT22;11650;48.106;-1.696;2024-02-21T02:56:14;9.70;99.90
22968;DHT22;11650;48.106;-1.696;2024-02-21T02:58:40;9.70;99.90
22968;DHT22;11650;48.106;-1.696;2024-02-21T03:01:07;9.70;99.90
22968;DHT22;11650;48.106;-1.696;2024-02-21T03:03:32;9.70;99.90
22968;DHT22;11650;48.106;-1.696;2024-02-21T03:05:58;9.70;99.90
22968;DHT22;11650;48.106;-1.696;2024-02-21T03:08:24;9.70;99.90
22968;DHT22;11650;48.106;-1.696;2024-02-21T03:10:49;9.70;99.90
22968;DHT22;11650;48.106;-1.696;2024-02-21T03:13:15;9.70;99.90
22968;DHT22;11650;48.106;-1.696;2024-02-21T03:15:40;9.70;99.90
22968;DHT22;11650;48.106;-1.696;2024-02-21T03:18:06;9.80;99.90
22968;DHT22;11650;48.106;-1.696;2024-02-21T03:20:31;9.70;99.90
22968;DHT22;11650;48.106;-1.696;2024-02-21T03:22:57;9.80;99.90
22968;DHT22;11650;48.106;-1.696;2024-02-21T03:25:23;9.80;99.90
22968;DHT22;11650;48.106;-1.696;2024-02-21T03:27:49;9.80;99.90
22968;DHT22;11650;48.106;-1.696;2024-02-21T03:30:14;9.80;99.90
22968;DHT22;11650;48.106;-1.696;2024-02-21T03:32:40;9.80;99.90
22968;DHT22;11650;48.106;-1.696;2024-02-21T03:35:06;9.80;99.90
22968;DHT22;11650;48.106;-1.696;2024-02-21T03:37:31;9.80;99.90
22968;DHT22;11650;48.106;-1.696;2024-02-21T03:39:57;9.80;99.90
22968;DHT22;11650;48.106;-1.696;2024-02-21T03:42:22;9.80;99.90
22968;DHT22;11650;48.106;-1.696;2024-02-21T03:44:48;9.80;99.90
22968;DHT22;11650;48.106;-1.696;2024-02-21T03:47:14;9.80;99.90
22968;DHT22;11650;48.106;-1.696;2024-02-21T03:49:39;9.80;99.90
22968;DHT22;11650;48.106;-1.696;2024-02-21T03:52:05;9.80;99.90
22968;DHT22;11650;48.106;-1.696;2024-02-21T03:54:31;9.80;99.90
22968;DHT22;11650;48.106;-1.696;2024-02-21T03:56:56;9.80;99.90
22968;DHT22;11650;48.106;-1.696;2024-02-21T03:59:22;9.80;99.90
22968;DHT22;11650;48.106;-1.696;2024-02-21T04:01:51;9.80;99.90
22968;DHT22;11650;48.106;-1.696;2024-02-21T04:04:17;9.70;99.90
22968;DHT22;11650;48.106;-1.696;2024-02-21T04:06:49;9.70;99.90
22968;DHT22;11650;48.106;-1.696;2024-02-21T04:09:15;9.80;99.90
22968;DHT22;11650;48.106;-1.696;2024-02-21T04:11:41;9.70;99.90
22968;DHT22;11650;48.106;-1.696;2024-02-21T04:14:07;9.80;99.90
22968;DHT22;11650;48.106;-1.696;2024-02-21T04:16:34;9.70;99.90
22968;DHT22;11650;48.106;-1.696;2024-02-21T04:19:00;9.70;99.90
22968;DHT22;11650;48.106;-1.696;2024-02-21T04:21:26;9.70;99.90
22968;DHT22;11650;48.106;-1.696;2024-02-21T04:23:52;9.70;99.90
22968;DHT22;11650;48.106;-1.696;2024-02-21T04:26:17;9.70;99.90
22968;DHT22;11650;48.106;-1.696;2024-02-21T04:28:45;9.70;99.90
22968;DHT22;11650;48.106;-1.696;2024-02-21T04:31:10;9.70;99.90
22968;DHT22;11650;48.106;-1.696;2024-02-21T04:33:36;9.70;99.90
22968;DHT22;11650;48.106;-1.696;2024-02-21T04:36:01;9.70;99.90
22968;DHT22;11650;48.106;-1.696;2024-02-21T04:38:27;9.70;99.90
22968;DHT22;11650;48.106;-1.696;2024-02-21T04:40:55;9.70;99.90
22968;DHT22;11650;48.106;-1.696;2024-02-21T04:43:20;9.70;99.90
22968;DHT22;11650;48.106;-1.696;2024-02-21T04:45:46;9.70;99.90
22968;DHT22;11650;48.106;-1.696;2024-02-21T04:48:11;9.70;99.90
22968;DHT22;11650;48.106;-1.696;2024-02-21T04:50:37;9.70;99.90
22968;DHT22;11650;48.106;-1.696;2024-02-21T04:53:03;9.70;99.90
22968;DHT22;11650;48.106;-1.696;2024-02-21T04:55:28;9.70;99.90
22968;DHT22;11650;48.106;-1.696;2024-02-21T04:57:54;9.70;99.90
22968;DHT22;11650;48.106;-1.696;2024-02-21T05:00:19;9.70;99.90
22968;DHT22;11650;48.106;-1.696;2024-02-21T05:02:45;9.70;99.90
22968;DHT22;11650;48.106;-1.696;2024-02-21T05:05:11;9.70;99.90
22968;DHT22;11650;48.106;-1.696;2024-02-21T05:07:36;9.70;99.90
22968;DHT22;11650;48.106;-1.696;2024-02-21T05:10:02;9.70;99.90
22968;DHT22;11650;48.106;-1.696;2024-02-21T05:12:28;9.70;99.90
22968;DHT22;11650;48.106;-1.696;2024-02-21T05:14:55;9.70;99.90
22968;DHT22;11650;48.106;-1.696;2024-02-21T05:17:21;9.70;99.90
22968;DHT22;11650;48.106;-1.696;2024-02-21T05:19:46;9.70;99.90
22968;DHT22;11650;48.106;-1.696;2024-02-21T05:22:12;9.70;99.90
22968;DHT22;11650;48.106;-1.696;2024-02-21T05:24:39;9.70;99.90
22968;DHT22;11650;48.106;-1.696;2024-02-21T05:27:05;9.70;99.90
22968;DHT22;11650;48.106;-1.696;2024-02-21T05:29:30;9.70;99.90
22968;DHT22;11650;48.106;-1.696;2024-02-21T05:31:56;9.70;99.90
22968;DHT22;11650;48.106;-1.696;2024-02-21T05:34:22;9.70;99.90
22968;DHT22;11650;48.106;-1.696;2024-02-21T05:36:48;9.70;99.90
22968;DHT22;11650;48.106;-1.696;2024-02-21T05:39:15;9.70;99.90
22968;DHT22;11650;48.106;-1.696;2024-02-21T05:41:42;9.70;99.90
22968;DHT22;11650;48.106;-1.696;2024-02-21T05:44:07;9.70;99.90
22968;DHT22;11650;48.106;-1.696;2024-02-21T05:46:33;9.70;99.90
22968;DHT22;11650;48.106;-1.696;2024-02-21T05:48:59;9.70;99.90
22968;DHT22;11650;48.106;-1.696;2024-02-21T05:51:24;9.70;99.90
22968;DHT22;11650;48.106;-1.696;2024-02-21T05:53:50;9.70;99.90
22968;DHT22;11650;48.106;-1.696;2024-02-21T05:56:16;9.70;99.90
22968;DHT22;11650;48.106;-1.696;2024-02-21T05:58:43;9.70;99.90
22968;DHT22;11650;48.106;-1.696;2024-02-21T06:01:09;9.70;99.90
22968;DHT22;11650;48.106;-1.696;2024-02-21T06:03:35;9.60;99.90
22968;DHT22;11650;48.106;-1.696;2024-02-21T06:06:02;9.70;99.90
22968;DHT22;11650;48.106;-1.696;2024-02-21T06:08:27;9.70;99.90
22968;DHT22;11650;48.106;-1.696;2024-02-21T06:10:53;9.70;99.90
22968;DHT22;11650;48.106;-1.696;2024-02-21T06:13:21;9.70;99.90
22968;DHT22;11650;48.106;-1.696;2024-02-21T06:15:47;9.70;99.90
22968;DHT22;11650;48.106;-1.696;2024-02-21T06:18:12;9.70;99.90
22968;DHT22;11650;48.106;-1.696;2024-02-21T06:20:38;9.70;99.90
22968;DHT22;11650;48.106;-1.696;2024-02-21T06:23:06;9.80;99.90
22968;DHT22;11650;48.106;-1.696;2024-02-21T06:25:31;9.80;99.90
22968;DHT22;11650;48.106;-1.696;2024-02-21T06:27:57;9.80;99.90
22968;DHT22;11650;48.106;-1.696;2024-02-21T06:30:23;9.80;99.90
22968;DHT22;11650;48.106;-1.696;2024-02-21T06:32:48;9.80;99.90
22968;DHT22;11650;48.106;-1.696;2024-02-21T06:35:14;9.80;99.90
22968;DHT22;11650;48.106;-1.696;2024-02-21T06:37:39;9.80;99.90
22968;DHT22;11650;48.106;-1.696;2024-02-21T06:40:05;9.80;99.90
22968;DHT22;11650;48.106;-1.696;2024-02-21T06:42:31;9.90;99.90
22968;DHT22;11650;48.106;-1.696;2024-02-21T06:44:57;9.80;99.90
22968;DHT22;11650;48.106;-1.696;2024-02-21T06:47:22;9.90;99.90
22968;DHT22;11650;48.106;-1.696;2024-02-21T06:49:49;9.90;99.90
22968;DHT22;11650;48.106;-1.696;2024-02-21T06:52:17;9.90;99.90
22968;DHT22;11650;48.106;-1.696;2024-02-21T06:54:46;9.90;99.90
22968;DHT22;11650;48.106;-1.696;2024-02-21T06:57:12;10.00;99.90
22968;DHT22;11650;48.106;-1.696;2024-02-21T06:59:38;9.90;99.90
22968;DHT22;11650;48.106;-1.696;2024-02-21T07:02:04;10.00;99.90
22968;DHT22;11650;48.106;-1.696;2024-02-21T07:04:29;10.00;99.90
22968;DHT22;11650;48.106;-1.696;2024-02-21T07:06:55;10.00;99.90
22968;DHT22;11650;48.106;-1.696;2024-02-21T07:09:20;10.00;99.90
22968;DHT22;11650;48.106;-1.696;2024-02-21T07:11:46;10.00;99.90
22968;DHT22;11650;48.106;-1.696;2024-02-21T07:14:13;10.00;99.90
22968;DHT22;11650;48.106;-1.696;2024-02-21T07:16:39;10.00;99.90
22968;DHT22;11650;48.106;-1.696;2024-02-21T07:19:05;10.10;99.90
22968;DHT22;11650;48.106;-1.696;2024-02-21T07:21:30;10.10;99.90
22968;DHT22;11650;48.106;-1.696;2024-02-21T07:23:57;10.10;99.90
22968;DHT22;11650;48.106;-1.696;2024-02-21T07:26:22;10.10;99.90
22968;DHT22;11650;48.106;-1.696;2024-02-21T07:28:48;10.10;99.90
22968;DHT22;11650;48.106;-1.696;2024-02-21T07:31:13;10.10;99.90
22968;DHT22;11650;48.106;-1.696;2024-02-21T07:33:39;10.10;99.90
22968;DHT22;11650;48.106;-1.696;2024-02-21T07:36:10;10.20;99.90
22968;DHT22;11650;48.106;-1.696;2024-02-21T07:38:36;10.20;99.90
22968;DHT22;11650;48.106;-1.696;2024-02-21T07:41:02;10.20;99.90
22968;DHT22;11650;48.106;-1.696;2024-02-21T07:43:29;10.20;99.90
22968;DHT22;11650;48.106;-1.696;2024-02-21T07:45:55;10.20;99.90
22968;DHT22;11650;48.106;-1.696;2024-02-21T07:48:21;10.30;99.90
22968;DHT22;11650;48.106;-1.696;2024-02-21T07:50:50;10.30;99.90
22968;DHT22;11650;48.106;-1.696;2024-02-21T07:53:16;10.30;99.90
22968;DHT22;11650;48.106;-1.696;2024-02-21T07:55:41;10.30;99.90
22968;DHT22;11650;48.106;-1.696;2024-02-21T07:58:07;10.30;99.90
22968;DHT22;11650;48.106;-1.696;2024-02-21T08:00:33;10.30;99.90
22968;DHT22;11650;48.106;-1.696;2024-02-21T08:02:58;10.30;99.90
22968;DHT22;11650;48.106;-1.696;2024-02-21T08:05:24;10.30;99.90
22968;DHT22;11650;48.106;-1.696;2024-02-21T08:07:50;10.30;99.90
22968;DHT22;11650;48.106;-1.696;2024-02-21T08:10:15;10.40;99.90
22968;DHT22;11650;48.106;-1.696;2024-02-21T08:12:41;10.40;99.90
22968;DHT22;11650;48.106;-1.696;2024-02-21T08:15:07;10.40;99.90
22968;DHT22;11650;48.106;-1.696;2024-02-21T08:17:36;10.40;99.90
22968;DHT22;11650;48.106;-1.696;2024-02-21T08:20:01;10.40;99.90
22968;DHT22;11650;48.106;-1.696;2024-02-21T08:22:28;10.40;99.90
22968;DHT22;11650;48.106;-1.696;2024-02-21T08:24:53;10.40;99.90
22968;DHT22;11650;48.106;-1.696;2024-02-21T08:27:19;10.40;99.90
22968;DHT22;11650;48.106;-1.696;2024-02-21T08:29:45;10.40;99.90
22968;DHT22;11650;48.106;-1.696;2024-02-21T08:32:10;10.40;99.90
22968;DHT22;11650;48.106;-1.696;2024-02-21T08:34:36;10.40;99.90
22968;DHT22;11650;48.106;-1.696;2024-02-21T08:37:01;10.50;99.90
22968;DHT22;11650;48.106;-1.696;2024-02-21T08:39:27;10.50;99.90
22968;DHT22;11650;48.106;-1.696;2024-02-21T08:41:55;10.40;99.90
22968;DHT22;11650;48.106;-1.696;2024-02-21T08:44:22;10.50;99.90
22968;DHT22;11650;48.106;-1.696;2024-02-21T08:46:49;10.50;99.90
22968;DHT22;11650;48.106;-1.696;2024-02-21T08:49:14;10.50;99.90
22968;DHT22;11650;48.106;-1.696;2024-02-21T08:51:40;10.50;99.90
22968;DHT22;11650;48.106;-1.696;2024-02-21T08:54:06;10.60;99.90
22968;DHT22;11650;48.106;-1.696;2024-02-21T08:56:31;10.60;99.90
22968;DHT22;11650;48.106;-1.696;2024-02-21T08:58:58;10.60;99.90
22968;DHT22;11650;48.106;-1.696;2024-02-21T09:01:23;10.60;99.90
22968;DHT22;11650;48.106;-1.696;2024-02-21T09:03:49;10.60;99.90
22968;DHT22;11650;48.106;-1.696;2024-02-21T09:06:19;10.60;99.90
22968;DHT22;11650;48.106;-1.696;2024-02-21T09:08:45;10.70;99.90
22968;DHT22;11650;48.106;-1.696;2024-02-21T09:11:11;10.70;99.90
22968;DHT22;11650;48.106;-1.696;2024-02-21T09:13:37;10.70;99.90
22968;DHT22;11650;48.106;-1.696;2024-02-21T09:16:02;10.70;99.90
22968;DHT22;11650;48.106;-1.696;2024-02-21T09:18:29;10.80;99.90
22968;DHT22;11650;48.106;-1.696;2024-02-21T09:20:55;10.80;99.90
22968;DHT22;11650;48.106;-1.696;2024-02-21T09:23:20;10.80;99.90
22968;DHT22;11650;48.106;-1.696;2024-02-21T09:25:49;10.80;99.90
22968;DHT22;11650;48.106;-1.696;2024-02-21T09:28:14;10.80;99.90
22968;DHT22;11650;48.106;-1.696;2024-02-21T09:30:40;10.80;99.90
22968;DHT22;11650;48.106;-1.696;2024-02-21T09:33:05;10.80;99.90
22968;DHT22;11650;48.106;-1.696;2024-02-21T09:35:31;10.90;99.90
22968;DHT22;11650;48.106;-1.696;2024-02-21T09:37:59;10.90;99.90
22968;DHT22;11650;48.106;-1.696;2024-02-21T09:40:25;11.00;99.90
22968;DHT22;11650;48.106;-1.696;2024-02-21T09:43:00;11.00;99.90
22968;DHT22;11650;48.106;-1.696;2024-02-21T09:45:27;11.10;99.90
22968;DHT22;11650;48.106;-1.696;2024-02-21T09:48:32;11.10;99.90
22968;DHT22;11650;48.106;-1.696;2024-02-21T09:50:59;11.10;99.90
22968;DHT22;11650;48.106;-1.696;2024-02-21T09:53:25;11.10;99.90
22968;DHT22;11650;48.106;-1.696;2024-02-21T09:55:52;11.10;99.90
22968;DHT22;11650;48.106;-1.696;2024-02-21T09:58:18;11.10;99.90
22968;DHT22;11650;48.106;-1.696;2024-02-21T10:00:43;11.10;99.90
22968;DHT22;11650;48.106;-1.696;2024-02-21T10:03:09;11.10;99.90
22968;DHT22;11650;48.106;-1.696;2024-02-21T10:05:36;11.10;99.90
22968;DHT22;11650;48.106;-1.696;2024-02-21T10:08:03;11.20;99.90
22968;DHT22;11650;48.106;-1.696;2024-02-21T10:10:28;11.20;99.90
22968;DHT22;11650;48.106;-1.696;2024-02-21T10:12:55;11.20;99.90
22968;DHT22;11650;48.106;-1.696;2024-02-21T10:15:22;11.20;99.90
22968;DHT22;11650;48.106;-1.696;2024-02-21T10:17:59;11.30;99.90
22968;DHT22;11650;48.106;-1.696;2024-02-21T10:20:25;11.30;99.90
22968;DHT22;11650;48.106;-1.696;2024-02-21T10:23:01;11.30;99.90
22968;DHT22;11650;48.106;-1.696;2024-02-21T10:25:28;11.30;99.90
22968;DHT22;11650;48.106;-1.696;2024-02-21T10:27:54;11.30;99.90
22968;DHT22;11650;48.106;-1.696;2024-02-21T10:30:20;11.30;99.90
22968;DHT22;11650;48.106;-1.696;2024-02-21T10:32:53;11.40;99.90
22968;DHT22;11650;48.106;-1.696;2024-02-21T10:35:30;11.40;99.90
22968;DHT22;11650;48.106;-1.696;2024-02-21T10:37:56;11.40;99.90
22968;DHT22;11650;48.106;-1.696;2024-02-21T10:40:27;11.40;99.90
22968;DHT22;11650;48.106;-1.696;2024-02-21T10:43:00;11.40;99.90
22968;DHT22;11650;48.106;-1.696;2024-02-21T10:45:44;11.40;99.90
22968;DHT22;11650;48.106;-1.696;2024-02-21T10:48:16;11.40;99.90
22968;DHT22;11650;48.106;-1.696;2024-02-21T10:58:42;11.40;99.90
22968;DHT22;11650;48.106;-1.696;2024-02-21T11:01:08;11.40;99.90
22968;DHT22;11650;48.106;-1.696;2024-02-21T11:03:34;11.40;99.90
22968;DHT22;11650;48.106;-1.696;2024-02-21T11:06:01;11.50;99.90
22968;DHT22;11650;48.106;-1.696;2024-02-21T11:08:27;11.50;99.90
22968;DHT22;11650;48.106;-1.696;2024-02-21T11:10:57;11.50;99.90
22968;DHT22;11650;48.106;-1.696;2024-02-21T11:13:36;11.50;99.90
22968;DHT22;11650;48.106;-1.696;2024-02-21T11:16:09;11.40;99.90
22968;DHT22;11650;48.106;-1.696;2024-02-21T11:18:36;11.50;99.90
22968;DHT22;11650;48.106;-1.696;2024-02-21T11:21:02;11.50;99.90
22968;DHT22;11650;48.106;-1.696;2024-02-21T11:23:30;11.50;99.90
22968;DHT22;11650;48.106;-1.696;2024-02-21T11:26:27;11.50;99.90
22968;DHT22;11650;48.106;-1.696;2024-02-21T11:28:59;11.50;99.90
22968;DHT22;11650;48.106;-1.696;2024-02-21T11:31:25;11.50;99.90
22968;DHT22;11650;48.106;-1.696;2024-02-21T11:33:54;11.40;99.90
22968;DHT22;11650;48.106;-1.696;2024-02-21T11:36:26;11.40;99.90
22968;DHT22;11650;48.106;-1.696;2024-02-21T11:38:53;11.50;99.90
22968;DHT22;11650;48.106;-1.696;2024-02-21T11:41:19;11.50;99.90
22968;DHT22;11650;48.106;-1.696;2024-02-21T11:43:46;11.50;99.90
22968;DHT22;11650;48.106;-1.696;2024-02-21T11:46:14;11.60;99.90
22968;DHT22;11650;48.106;-1.696;2024-02-21T11:48:41;11.60;99.90
22968;DHT22;11650;48.106;-1.696;2024-02-21T11:51:06;11.60;99.90
22968;DHT22;11650;48.106;-1.696;2024-02-21T11:53:32;11.60;99.90
22968;DHT22;11650;48.106;-1.696;2024-02-21T11:55:58;11.70;99.90
22968;DHT22;11650;48.106;-1.696;2024-02-21T11:58:24;11.70;99.90
22968;DHT22;11650;48.106;-1.696;2024-02-21T12:00:52;11.70;99.90
22968;DHT22;11650;48.106;-1.696;2024-02-21T12:03:18;11.70;99.90
22968;DHT22;11650;48.106;-1.696;2024-02-21T12:05:43;11.70;99.90
22968;DHT22;11650;48.106;-1.696;2024-02-21T12:08:09;11.70;99.90
22968;DHT22;11650;48.106;-1.696;2024-02-21T12:10:35;11.70;99.90
22968;DHT22;11650;48.106;-1.696;2024-02-21T12:13:10;11.60;99.90
22968;DHT22;11650;48.106;-1.696;2024-02-21T12:15:38;11.60;99.90
22968;DHT22;11650;48.106;-1.696;2024-02-21T12:18:04;11.60;99.90
22968;DHT22;11650;48.106;-1.696;2024-02-21T12:20:30;11.60;99.90
22968;DHT22;11650;48.106;-1.696;2024-02-21T12:23:00;11.60;99.90
22968;DHT22;11650;48.106;-1.696;2024-02-21T12:25:25;11.60;99.90
22968;DHT22;11650;48.106;-1.696;2024-02-21T12:27:52;11.60;99.90
22968;DHT22;11650;48.106;-1.696;2024-02-21T12:30:19;11.60;99.90
22968;DHT22;11650;48.106;-1.696;2024-02-21T12:32:45;11.60;99.90
22968;DHT22;11650;48.106;-1.696;2024-02-21T12:35:11;11.50;99.90
22968;DHT22;11650;48.106;-1.696;2024-02-21T12:37:37;11.50;99.90
22968;DHT22;11650;48.106;-1.696;2024-02-21T12:40:07;11.50;99.90
22968;DHT22;11650;48.106;-1.696;2024-02-21T12:42:34;11.50;99.90
22968;DHT22;11650;48.106;-1.696;2024-02-21T12:45:00;11.40;99.90
22968;DHT22;11650;48.106;-1.696;2024-02-21T12:47:25;11.40;99.90
22968;DHT22;11650;48.106;-1.696;2024-02-21T12:49:52;11.30;99.90
22968;DHT22;11650;48.106;-1.696;2024-02-21T12:52:18;11.30;99.90
22968;DHT22;11650;48.106;-1.696;2024-02-21T12:54:44;11.30;99.90
22968;DHT22;11650;48.106;-1.696;2024-02-21T12:57:10;11.30;99.90
22968;DHT22;11650;48.106;-1.696;2024-02-21T12:59:35;11.30;99.90
22968;DHT22;11650;48.106;-1.696;2024-02-21T13:02:01;11.30;99.90
22968;DHT22;11650;48.106;-1.696;2024-02-21T13:04:27;11.30;99.90
22968;DHT22;11650;48.106;-1.696;2024-02-21T13:06:52;11.30;99.90
22968;DHT22;11650;48.106;-1.696;2024-02-21T13:09:18;11.30;99.90
22968;DHT22;11650;48.106;-1.696;2024-02-21T13:11:44;11.30;99.90
22968;DHT22;11650;48.106;-1.696;2024-02-21T13:14:11;11.30;99.90
22968;DHT22;11650;48.106;-1.696;2024-02-21T13:16:37;11.30;99.90
22968;DHT22;11650;48.106;-1.696;2024-02-21T13:19:08;11.30;99.90
22968;DHT22;11650;48.106;-1.696;2024-02-21T13:21:37;11.30;99.90
22968;DHT22;11650;48.106;-1.696;2024-02-21T13:24:03;11.40;99.90
22968;DHT22;11650;48.106;-1.696;2024-02-21T13:26:28;11.30;99.90
22968;DHT22;11650;48.106;-1.696;2024-02-21T13:28:54;11.30;99.90
22968;DHT22;11650;48.106;-1.696;2024-02-21T13:31:20;11.40;99.90
22968;DHT22;11650;48.106;-1.696;2024-02-21T13:33:46;11.30;99.90
22968;DHT22;11650;48.106;-1.696;2024-02-21T13:36:11;11.40;99.90
22968;DHT22;11650;48.106;-1.696;2024-02-21T13:38:37;11.30;99.90
22968;DHT22;11650;48.106;-1.696;2024-02-21T13:41:05;11.30;99.90
22968;DHT22;11650;48.106;-1.696;2024-02-21T13:43:31;11.30;99.90
22968;DHT22;11650;48.106;-1.696;2024-02-21T13:45:58;11.30;99.90
22968;DHT22;11650;48.106;-1.696;2024-02-21T13:48:24;11.30;99.90
22968;DHT22;11650;48.106;-1.696;2024-02-21T13:50:50;11.30;99.90
22968;DHT22;11650;48.106;-1.696;2024-02-21T13:53:16;11.30;99.90
22968;DHT22;11650;48.106;-1.696;2024-02-21T13:55:47;11.30;99.90
22968;DHT22;11650;48.106;-1.696;2024-02-21T13:58:12;11.30;99.90
22968;DHT22;11650;48.106;-1.696;2024-02-21T14:00:38;11.40;99.90
22968;DHT22;11650;48.106;-1.696;2024-02-21T14:03:04;11.40;99.90
22968;DHT22;11650;48.106;-1.696;2024-02-21T14:05:29;11.40;99.90
22968;DHT22;11650;48.106;-1.696;2024-02-21T14:07:55;11.40;99.90
22968;DHT22;11650;48.106;-1.696;2024-02-21T14:10:22;11.40;99.90
22968;DHT22;11650;48.106;-1.696;2024-02-21T14:12:47;11.50;99.90
22968;DHT22;11650;48.106;-1.696;2024-02-21T14:15:14;11.50;99.90
22968;DHT22;11650;48.106;-1.696;2024-02-21T14:17:39;11.50;99.90
22968;DHT22;11650;48.106;-1.696;2024-02-21T14:20:08;11.50;99.90
22968;DHT22;11650;48.106;-1.696;2024-02-21T14:22:35;11.50;99.90
22968;DHT22;11650;48.106;-1.696;2024-02-21T14:25:03;11.50;99.90
22968;DHT22;11650;48.106;-1.696;2024-02-21T14:27:30;11.60;99.90
22968;DHT22;11650;48.106;-1.696;2024-02-21T14:29:56;11.50;99.90
22968;DHT22;11650;48.106;-1.696;2024-02-21T14:32:22;11.60;99.90
22968;DHT22;11650;48.106;-1.696;2024-02-21T14:34:47;11.60;99.90
22968;DHT22;11650;48.106;-1.696;2024-02-21T14:37:14;11.60;99.90
22968;DHT22;11650;48.106;-1.696;2024-02-21T14:39:40;11.60;99.90
22968;DHT22;11650;48.106;-1.696;2024-02-21T14:42:06;11.70;99.90
22968;DHT22;11650;48.106;-1.696;2024-02-21T14:44:35;11.70;99.90
22968;DHT22;11650;48.106;-1.696;2024-02-21T14:47:02;11.70;99.90
22968;DHT22;11650;48.106;-1.696;2024-02-21T14:49:29;11.70;99.90
22968;DHT22;11650;48.106;-1.696;2024-02-21T14:51:54;11.80;99.90
22968;DHT22;11650;48.106;-1.696;2024-02-21T14:54:20;11.80;99.90
22968;DHT22;11650;48.106;-1.696;2024-02-21T14:56:46;11.90;99.90
22968;DHT22;11650;48.106;-1.696;2024-02-21T14:59:12;11.90;99.90
22968;DHT22;11650;48.106;-1.696;2024-02-21T15:01:38;11.90;99.90
22968;DHT22;11650;48.106;-1.696;2024-02-21T15:04:04;11.90;99.90
22968;DHT22;11650;48.106;-1.696;2024-02-21T15:06:30;12.00;99.90
22968;DHT22;11650;48.106;-1.696;2024-02-21T15:08:57;12.00;99.90
22968;DHT22;11650;48.106;-1.696;2024-02-21T15:11:23;12.10;99.90
22968;DHT22;11650;48.106;-1.696;2024-02-21T15:13:49;12.10;99.90
22968;DHT22;11650;48.106;-1.696;2024-02-21T15:16:15;12.10;99.90
22968;DHT22;11650;48.106;-1.696;2024-02-21T15:18:42;12.20;99.90
22968;DHT22;11650;48.106;-1.696;2024-02-21T15:21:07;12.20;99.90
22968;DHT22;11650;48.106;-1.696;2024-02-21T15:23:36;12.20;99.90
22968;DHT22;11650;48.106;-1.696;2024-02-21T15:26:01;12.30;99.90